AirNav   ATP
 
 305 users online  

CA33 County Medical Center Heliport
San Jose, California, USA

GOING TO SAN JOSE?


FAA INFORMATION EFFECTIVE 20 JULY 2017

Location

FAA Identifier: CA33
Lat/Long: 37-18-47.7200N / 121-56-03.6800W
37-18.795333N / 121-56.061333W
37.3132556 / -121.9343556
(estimated)
Elevation: 148 ft. / 45 m (estimated)
Variation: 16E (1985)
Time zone: UTC -7 (UTC -8 during Standard Time)
Zip code: 95128

Heliport Operations

Heliport use: Private use, MEDICAL.
Activation date: 06/1971
Control tower: no
ARTCC: OAKLAND CENTER
FSS: OAKLAND FLIGHT SERVICE STATION
Attendance: CONTINUOUS
Wind indicator: lighted
Segmented circle: no
Lights: FOR PERIMETER LGTS CALL 408-299-6900.

Heliport Communications

WX ASOS at SJC (3 nm N): PHONE 408-969-0838
WX ASOS at NUQ (8 nm NW): 124.175 or 283.0 (650-604-1529)
WX AWOS-3P at SQL (19 nm NW): 125.9 (650-593-0613)

Nearby radio navigation aids

VOR radial/distance  VOR name  Freq  Var
SJCr156/3.7SAN JOSE VOR/DME114.1016E
OSIr089/17.2WOODSIDE VOR/DME113.9017E
SFOr114/27.9SAN FRANCISCO VOR/DME115.8017E
OAKr134/28.3OAKLAND VOR/DME116.8017E

 
NDB name  Hdg/Dist  Freq  Var  ID
TRACY211/32.620315ETCY - -.-. -.--

Heliport Services

Airframe service: NONE
Powerplant service: NONE

Runway Information

Helipad H1

Dimensions: 65 x 65 ft. / 20 x 20 m
Surface: concrete
ROOFTOP CIRCULAR PAD.
Runway edge lights: PERIMETER LGTS & FLOOD LGTS.
Latitude: 37-18.795333N
Longitude: 121-56.061333W
Elevation: 148.0 ft.
Traffic pattern: leftleft

Heliport Ownership and Management from official FAA records

Ownership: Publicly-owned
Owner: CO OF SANTA CLARA
751 S. BASCOM AVE
SAN JOSE, CA 95128
Phone (408) 885-4400
Manager: SANTA CLARA MED CENTER
751 S. BASCOM AVE
SAN JOSE, CA 95128
Phone 408-885-4400

Instrument Procedures

There are no published instrument procedures at CA33.

Some nearby airports with instrument procedures:

KSJC - Norman Y Mineta San Jose International Airport (3 nm N)
KRHV - Reid-Hillview Airport of Santa Clara County (6 nm E)
KNUQ - Moffett Federal Airfield (8 nm NW)
KPAO - Palo Alto Airport (12 nm NW)
KSQL - San Carlos Airport (19 nm NW)
 
Loc | Ops | Rwys | IFR | FBO | Links
Com | Nav | Svcs | Stats | Notes


 
Area around CA33 (County Medical Center Heliport)
 
Road maps at: MapQuest Bing Google
 
Aerial photo
No photo
 
Sectional chart

 
Airport distance calculator
Flying to County Medical Center Heliport? Find the distance to fly.

From to CA33

Sunrise and sunset
Times for 26-Jul-2017
 Local
(UTC-7)
 Zulu
(UTC)
Morning civil twilight05:3912:39
Sunrise06:0813:08
Sunset20:2003:20
Evening civil twilight20:4903:49

Current date and time
Zulu (UTC)  26-Jul-2017 07:42:16
Local (UTC-7)  26-Jul-2017 00:42:16
 
METAR
KSJC 
3nm N 
260653Z 33004KT 10SM FEW005 18/14 A3000 RMK AO2 SLP159 LAST T01780144
KRHV 
6nm E 
260454Z 31005KT 10SM SKC 19/13 A3001
KNUQ 
8nm NW 
260656Z 36005KT 10SM CLR 17/14 A3001 RMK AO2 SLP165 T01670139
KPAO 
13nm NW 
260347Z 34011KT 10SM SKC 19/15 A2996 RMK LAST
KSQL 
19nm NW 
260710Z AUTO 31004KT 10SM CLR 16/13 A3001 RMK AO2
TAF
KSJC 
3nm N 
260529Z 2606/2706 31006KT P6SM FEW007 FM260900 15006KT P6SM SKC FM261900 28004KT P6SM SKC
NOTAMs
Click for the latest NOTAMs
NOTAMs are issued by the DoD/FAA and will open in a separate window not controlled by AirNav.

 

 
 

Would you like to see your business listed on this page?

 If your business provides an interesting product or service to pilots, flight crews, aircraft, or users of the County Medical Center Heliport, you should consider listing it here.  To start the listing process, click on the button below
 
Add a business
 

Other Pages about County Medical Center Heliport

Update a link
 
Copyright © AirNav, LLC. All rights reserved. Privacy Policy  Contact